El-Hamman, Egypt

1:17 PM EET on September 24, 2017 (GMT +0200)
Alexandria | | Change Station

Elev 23 ft 31.18 °N, 29.94 °E | Updated 1 hour ago

Clear
Clear
82 °F
Feels Like 81 °F
N
17
Wind Variable Wind from NNW

Today
High -- | Low -- °F
--% Chance of Precip.
Yesterday
High -- | Low -- °F
Precip. -- in
Pressure 30.01 in
Visibility 6.2 miles
Clouds Scattered Clouds 2000 ft
Heat Index 81 °F
Dew Point 54 °F
Humidity 37%
Rainfall 0.00 in
Snow Depth Not available.
5:51 AM 5:56 PM
Waxing Crescent, 18% visible
METAR HEAX 241000Z 33015KT 9999 SCT020 28/12 Q1016 NOSIG
Pressure 30.01 in
Visibility 6.2 miles
Clouds Scattered Clouds 2000 ft
Heat Index 81 °F
Dew Point 54 °F
Humidity 37%
Rainfall 0.00 in
Snow Depth Not available.
5:51 AM 5:56 PM
Waxing Crescent, 18% visible
METAR HEAX 241000Z 33015KT 9999 SCT020 28/12 Q1016 NOSIG

Get Severe Weather Alerts

Thanks for signing up!

Be on the lookout for a verification email in your inbox.

You'll start receiving the daily forecast at 6 AM.

×

10-Day Weather Forecast

No radar image for this location.
×

Almanac

Astronomy

Sep. 24, 2017 Rise Set
Actual Time
Civil Twilight
Nautical Twilight
Astronomical Twilight
Moon
Length of Visible Light
Length of Day
Tomorrow will be .
, % of the Moon is Illuminated

Today's Extremes

Country Highs Country Lows

Community

WunderPhotos

Category 6

Welcome to Category 6. This is the collective home for Weather Underground's featured writeups by Dr. Jeff Masters (right), Bob Henson (left), Chris Burt, and other regular contributors.

Nearby

Air Quality

  Air Quality AQ Index Pollutant
Not available.

Snow Depth

Station Depth Elevation

Earthquake Activity

City Distance Mag. Time & Date
Minimum magnitude displayed is 2.5.

Coastal Water Temperatures

Place Temperature

Stations

Nearby Weather Stations

Station Location Temp. Windchill Dew Point Humidity Wind Precip. Elev Updated Type